Impacts TAF Board
For situational awareness. Not to be used for flight planning purposes.
IDs:

KEWR - Newark Intl, NJ, US

Issued at 0240 UTC 12 Dec 2018
Updated at 0256 UTC 12 Dec 2018
Potential Impact None Slight Moderate High
Time0251Z 12/03Z 12/04Z 12/05Z 12/06Z 12/07Z 12/08Z 12/09Z 12/10Z 12/11Z 12/12Z 12/13Z 12/14Z 12/15Z>>
Type OBS PRVL PRVL PRVL PRVL PRVL PRVL PRVL PRVL PRVL PRVL PRVL PRVL PRVL
VIS 10 >6 >6 >6 >6 >6 >6 >6 >6 >6 >6 >6 >6 >6
CIG -- -- -- 35 35 35 35 35 -- -- -- -- -- --
Cover SCT SCT SCT BKN BKN BKN BKN BKN SCT SCT SCT FEW FEW FEW
FltCat VFR VFR VFR VFR VFR VFR VFR VFR VFR VFR VFR VFR VFR VFR
WX -- -- -- -- -- -- -- -- -- -- -- -- -- --
WDir 270 290 290 290 290 290 290 290 290 290 290 290 290 290
WSpd 8 10 10 9 9 9 9 9 7 7 7 8 8 8
WGst -- -- -- -- -- -- -- -- -- -- -- 14 14 14
Raw TAF
KEWR 120240Z 1203/1306 29010KT P6SM SCT035
  FM120500 29009KT P6SM BKN035
  FM121000 29007KT P6SM SCT035
  FM121300 29008G14KT P6SM FEW035
  FM121800 31009G15KT P6SM FEW250
  FM122000 31007KT P6SM FEW030 FEW250


Raw METAR
KEWR 120251Z 27008KT 10SM FEW035 SCT065 01/M07 A2997 RMK AO2 SLP149 T00061067 50000 $
KEWR 120151Z 28010KT 10SM FEW035 01/M06 A2998 RMK AO2 SLP151 T00111061 $
KEWR 120051Z 26008KT 10SM FEW035 02/M06 A2997 RMK AO2 SLP148 T00171061 $
KEWR 112351Z 25008KT 10SM FEW035 02/M06 A2997 RMK AO2 SLP148 T00221061 10056 20011 53001 $

METAR Board
Radar Display
Forecast Discussion
For situational awareness. Not to be used for flight planning purposes.